aviador You're here:

UBBN Decoded Metar

NAKHCHIVAN in AZERBAIJAN
Report Time2017-10-24 02:00:00
UTC Time2017-10-24 02:22:55
Flight Rules vfr VFR
Wind060° at 04 kt
W.Decomp.*RWY 14: 0.5 kt HW 4 kt LCW
W.Rank060° ranks 23
Current wind is below 060° avg. (4.8)
Visibility9999 m
Phenomena:N/A
Clouds:N/A
Expected CloudBase > 2,400 ft AGL from Temp-Dew spread
CeilingNone
Temp06°C (ISA +2)
Dew Point00°C (66% RH)
AAT2.6°C
QNH1018 hPa
Density Alt5,843 ft
Elevation5,653 ft
Report Wrong Elevation
Raw Report
UBBN 240200Z 06004KT 9999 NSC 06/M00 Q1018 R14R/CLRD// NOSIG RMK
MT OP QFE688=

Extra information for UBBN:More info

Metar Taf Metar & Taf Last 4 Metars F.Rules Stats Wind Profile Meteogram Temp Stats Airport Information Weather charts Add Link Nearby VenuesMetar ALERT Operation Metar Decoded Social comments